createdAt,value
2018-09-12T02:07:22.188Z,14.84
2018-09-12T02:08:22.159Z,14.67
2018-09-12T02:10:15.136Z,14.54
2018-09-12T02:11:15.122Z,14.56
2018-09-12T02:13:08.068Z,14.75
2018-09-12T02:14:08.036Z,14.71
2018-09-12T02:16:00.957Z,14.78
2018-09-12T02:17:00.926Z,14.69
2018-09-12T02:18:53.909Z,14.80
2018-09-12T02:19:53.879Z,14.69
2018-09-12T02:21:46.779Z,14.68
2018-09-12T02:22:46.767Z,14.78
2018-09-12T02:24:39.705Z,14.69
2018-09-12T02:25:39.685Z,14.74
2018-09-12T02:27:32.664Z,14.71
2018-09-12T02:28:32.639Z,14.88
2018-09-12T02:30:25.619Z,14.91
2018-09-12T02:31:25.599Z,14.86
2018-09-12T02:33:18.572Z,14.88
2018-09-12T02:34:18.553Z,14.87
2018-09-12T02:36:11.522Z,14.90
2018-09-12T02:37:11.508Z,14.87
2018-09-12T02:39:04.491Z,14.93
2018-09-12T02:40:04.466Z,14.83
2018-09-12T02:41:57.437Z,14.78
2018-09-12T02:42:57.419Z,14.71
2018-09-12T02:44:50.399Z,14.71
2018-09-12T02:45:50.371Z,14.74
2018-09-12T02:47:43.374Z,14.71
2018-09-12T02:48:43.341Z,14.71
2018-09-12T02:50:36.303Z,14.74
2018-09-12T02:51:36.290Z,14.71
2018-09-12T02:53:29.244Z,14.71
2018-09-12T02:54:29.227Z,14.67
2018-09-12T02:56:22.150Z,14.71
2018-09-12T02:57:22.141Z,14.62
2018-09-12T02:59:15.069Z,14.74
2018-09-12T03:00:15.044Z,14.78
2018-09-12T03:02:08.008Z,14.88
2018-09-12T03:03:07.996Z,14.88
2018-09-12T03:05:00.972Z,14.87
2018-09-12T03:06:00.959Z,14.83
2018-09-12T03:07:53.931Z,14.80
2018-09-12T03:08:53.915Z,14.71
2018-09-12T03:10:46.855Z,14.74
2018-09-12T03:11:46.828Z,14.74
2018-09-12T03:13:39.780Z,14.68
2018-09-12T03:14:39.740Z,14.67
2018-09-12T03:16:32.690Z,14.52
2018-09-12T03:17:32.669Z,14.50
2018-09-12T03:19:25.646Z,14.62
2018-09-12T03:20:25.630Z,14.61
2018-09-12T03:22:18.584Z,14.72
2018-09-12T03:23:18.572Z,14.68
2018-09-12T03:25:11.519Z,14.56
2018-09-12T03:26:11.500Z,14.49
2018-09-12T03:28:04.391Z,14.35
2018-09-12T03:29:04.381Z,14.38
2018-09-12T03:30:57.363Z,14.56
2018-09-12T03:31:57.340Z,14.57
2018-09-12T03:33:50.323Z,14.60
2018-09-12T03:34:50.288Z,14.64
2018-09-12T03:36:43.258Z,14.52
2018-09-12T03:37:43.248Z,14.46
2018-09-12T03:39:36.223Z,14.44
2018-09-12T03:40:36.200Z,14.49
2018-09-12T03:42:29.163Z,14.44
2018-09-12T03:43:29.153Z,14.39
2018-09-12T03:45:22.130Z,14.37
2018-09-12T03:46:22.108Z,14.38
2018-09-12T03:48:15.075Z,14.42
2018-09-12T03:49:15.063Z,14.39
2018-09-12T03:51:08.037Z,14.50
2018-09-12T03:52:08.020Z,14.56
2018-09-12T03:54:00.997Z,14.52
2018-09-12T03:55:00.975Z,14.52
2018-09-12T03:56:53.944Z,14.38
2018-09-12T03:57:53.923Z,14.46
2018-09-12T03:59:46.880Z,14.38
2018-09-12T04:00:46.854Z,14.38
2018-09-12T04:02:39.884Z,14.39
2018-09-12T04:03:39.833Z,14.31
2018-09-12T04:05:32.807Z,14.35
2018-09-12T04:06:32.787Z,14.37
2018-09-12T04:08:25.723Z,14.38
2018-09-12T04:09:25.705Z,14.38
2018-09-12T04:11:18.636Z,14.37
2018-09-12T04:12:18.616Z,14.38
2018-09-12T04:14:11.556Z,14.52
2018-09-12T04:15:11.537Z,14.42
2018-09-12T04:17:04.526Z,14.50
2018-09-12T04:18:04.498Z,14.67
2018-09-12T04:19:57.438Z,14.61
2018-09-12T04:20:57.439Z,14.57
2018-09-12T04:22:50.432Z,14.50
2018-09-12T04:23:50.412Z,14.46
2018-09-12T04:25:43.389Z,14.32
2018-09-12T04:26:43.368Z,14.34
2018-09-12T04:28:36.324Z,14.20
2018-09-12T04:29:36.312Z,14.25
2018-09-12T04:31:29.217Z,14.14
2018-09-12T04:32:29.196Z,13.94
2018-09-12T04:34:22.129Z,13.95
2018-09-12T04:35:22.173Z,13.92
2018-09-12T04:37:15.058Z,13.92
2018-09-12T04:38:15.031Z,13.76
2018-09-12T04:40:07.934Z,13.89
2018-09-12T04:41:07.958Z,13.77
2018-09-12T04:43:00.904Z,13.71
2018-09-12T04:44:00.886Z,13.67
2018-09-12T04:45:53.859Z,13.69
2018-09-12T04:46:53.838Z,13.65
2018-09-12T04:48:46.805Z,13.67
2018-09-12T04:49:46.792Z,13.59
2018-09-12T04:51:39.764Z,13.63
2018-09-12T04:52:39.723Z,13.63
2018-09-12T04:54:32.646Z,13.54
2018-09-12T04:55:32.620Z,13.62
2018-09-12T04:57:25.572Z,13.59
2018-09-12T04:58:25.559Z,13.79
2018-09-12T05:00:18.538Z,13.79
2018-09-12T05:01:18.506Z,13.76
2018-09-12T05:03:11.444Z,13.87
2018-09-12T05:04:11.448Z,13.91
2018-09-12T05:06:04.343Z,14.04
2018-09-12T05:07:04.319Z,14.09
2018-09-12T05:08:57.272Z,14.14
2018-09-12T05:09:57.262Z,14.13
2018-09-12T05:11:50.243Z,14.28
2018-09-12T05:12:50.226Z,14.31
2018-09-12T05:14:43.129Z,14.34
2018-09-12T05:15:43.116Z,14.27
2018-09-12T05:17:36.048Z,14.37
2018-09-12T05:18:36.044Z,14.37
2018-09-12T05:20:28.961Z,14.38
2018-09-12T05:21:28.931Z,14.37
2018-09-12T05:23:21.903Z,14.34
2018-09-12T05:24:21.829Z,14.27
2018-09-12T05:26:14.811Z,14.42
2018-09-12T05:27:14.785Z,14.37
2018-09-12T05:29:07.749Z,14.44
2018-09-12T05:30:07.738Z,14.50
2018-09-12T05:32:00.701Z,14.84
2018-09-12T05:33:00.688Z,14.98
2018-09-12T05:34:53.656Z,15.24
2018-09-12T05:35:53.652Z,15.38
2018-09-12T05:37:46.628Z,15.64
2018-09-12T05:38:46.601Z,15.82
2018-09-12T05:40:39.611Z,15.86
2018-09-12T05:41:39.555Z,15.94
2018-09-12T05:42:39.550Z,15.94
2018-09-12T05:43:39.546Z,15.97
2018-09-12T05:44:39.550Z,16.03
2018-09-12T05:45:39.558Z,16.12
2018-09-12T05:46:39.550Z,16.12
2018-09-12T05:47:39.532Z,16.16
2018-09-12T05:48:39.535Z,16.20
2018-09-12T05:49:39.530Z,16.26
2018-09-12T05:50:39.524Z,16.25
2018-09-12T05:51:39.525Z,16.37
2018-09-12T05:52:39.521Z,16.38
2018-09-12T05:53:39.529Z,16.41
2018-09-12T05:54:39.515Z,16.50
2018-09-12T05:55:39.515Z,16.49
2018-09-12T05:56:39.518Z,16.53
2018-09-12T05:57:39.507Z,16.55
2018-09-12T05:58:39.510Z,16.65
2018-09-12T05:59:39.506Z,16.75
2018-09-12T06:00:39.501Z,16.83
2018-09-12T06:01:39.510Z,16.92
2018-09-12T06:02:39.498Z,17.00
2018-09-12T06:03:39.494Z,17.13
2018-09-12T06:04:39.491Z,17.17
2018-09-12T06:05:39.488Z,17.14
2018-09-12T06:06:39.523Z,17.20
2018-09-12T06:07:39.489Z,17.29
2018-09-12T06:08:39.481Z,17.48
2018-09-12T06:09:39.477Z,17.53
2018-09-12T06:10:39.478Z,17.63
2018-09-12T06:11:39.475Z,17.71
2018-09-12T06:12:39.473Z,17.73
2018-09-12T06:13:39.480Z,17.82
2018-09-12T06:14:39.470Z,17.81
2018-09-12T06:15:39.466Z,17.92
2018-09-12T06:16:39.464Z,18.10
2018-09-12T06:17:39.463Z,18.06
2018-09-12T06:18:39.463Z,18.09
2018-09-12T06:19:39.453Z,18.12
2018-09-12T06:20:39.460Z,18.06
2018-09-12T06:21:39.454Z,18.12
2018-09-12T06:22:39.453Z,18.27
2018-09-12T06:23:39.450Z,18.24
2018-09-12T06:24:39.449Z,18.28
2018-09-12T06:25:39.450Z,18.24
2018-09-12T06:26:39.448Z,18.47
2018-09-12T06:27:39.445Z,18.54
2018-09-12T06:28:39.443Z,18.65
2018-09-12T06:29:39.439Z,18.73
2018-09-12T06:30:39.447Z,18.73
2018-09-12T06:31:39.436Z,18.82
2018-09-12T06:32:39.436Z,18.73
2018-09-12T06:33:39.433Z,18.83
2018-09-12T06:34:39.444Z,19.01
2018-09-12T06:35:39.430Z,19.24
2018-09-12T06:36:39.432Z,19.25
2018-09-12T06:37:39.453Z,19.38
2018-09-12T06:38:39.438Z,19.39
2018-09-12T06:39:39.439Z,19.31
2018-09-12T06:40:39.422Z,19.42
2018-09-12T06:41:39.426Z,19.57
2018-09-12T06:42:39.422Z,19.69
2018-09-12T06:43:39.422Z,19.90
2018-09-12T06:44:39.442Z,19.78
2018-09-12T06:45:39.418Z,19.91
2018-09-12T06:46:39.418Z,19.91
2018-09-12T06:47:39.416Z,20.03
2018-09-12T06:48:39.428Z,20.31
2018-09-12T06:49:39.419Z,20.39
2018-09-12T06:50:39.417Z,20.34
2018-09-12T06:51:39.412Z,20.50
2018-09-12T06:52:39.411Z,20.61
2018-09-12T06:53:39.416Z,20.66
2018-09-12T06:54:39.461Z,21.05
2018-09-12T06:55:39.416Z,21.05
2018-09-12T06:56:39.419Z,21.24
2018-09-12T06:57:39.414Z,21.45
2018-09-12T06:58:39.413Z,21.91
2018-09-12T06:59:39.412Z,21.97
2018-09-12T07:00:39.441Z,22.09
2018-09-12T07:01:39.413Z,22.65
2018-09-12T07:02:39.424Z,23.02
2018-09-12T07:03:39.420Z,23.15
2018-09-12T07:04:39.412Z,23.17
2018-09-12T07:05:39.427Z,23.45
2018-09-12T07:06:39.420Z,23.58
2018-09-12T07:07:39.438Z,23.61
2018-09-12T07:08:39.430Z,23.80
2018-09-12T07:09:39.431Z,23.82
2018-09-12T07:10:39.436Z,23.22
2018-09-12T07:11:39.440Z,23.94
2018-09-12T07:12:39.446Z,24.00
2018-09-12T07:13:39.448Z,24.24
2018-09-12T07:14:39.454Z,23.58
2018-09-12T07:15:39.461Z,23.90
2018-09-12T07:16:39.465Z,23.75
2018-09-12T07:17:39.471Z,23.98
2018-09-12T07:18:39.477Z,23.80
2018-09-12T07:19:39.481Z,24.45
2018-09-12T07:20:39.492Z,24.05
2018-09-12T07:21:39.496Z,24.26
2018-09-12T07:22:39.500Z,24.04
2018-09-12T07:23:39.511Z,24.76
2018-09-12T07:24:39.531Z,25.06
2018-09-12T07:25:39.522Z,25.64
2018-09-12T07:26:39.531Z,25.94
2018-09-12T07:27:39.581Z,25.86
2018-09-12T07:28:39.541Z,25.82
2018-09-12T07:29:39.569Z,25.89
2018-09-12T07:30:39.638Z,25.87
2018-09-12T07:31:39.564Z,26.20
2018-09-12T07:32:39.587Z,26.05
2018-09-12T07:33:39.579Z,26.18
2018-09-12T07:34:39.588Z,26.42
2018-09-12T07:35:39.596Z,25.59
2018-09-12T07:36:39.608Z,25.52
2018-09-12T07:37:39.612Z,25.19
2018-09-12T07:38:39.619Z,24.83
2018-09-12T07:39:42.576Z,24.77
2018-09-12T07:40:39.639Z,24.75
2018-09-12T07:41:39.701Z,25.00
2018-09-12T07:42:39.654Z,25.37
2018-09-12T07:43:39.663Z,25.94
2018-09-12T07:44:39.670Z,25.68
2018-09-12T07:45:39.681Z,25.67
2018-09-12T07:46:39.691Z,25.82
2018-09-12T07:47:39.697Z,25.93
2018-09-12T07:48:39.711Z,25.91
2018-09-12T07:49:39.718Z,26.05
2018-09-12T07:50:39.726Z,26.32
2018-09-12T07:51:39.735Z,26.98
2018-09-12T07:52:39.747Z,26.02
2018-09-12T07:53:39.754Z,26.24
2018-09-12T07:54:39.757Z,26.77
2018-09-12T07:55:39.773Z,26.67
2018-09-12T07:56:39.823Z,27.11
2018-09-12T07:57:39.802Z,27.04
2018-09-12T07:58:39.826Z,27.06
2018-09-12T07:59:39.813Z,27.67
2018-09-12T08:00:39.886Z,27.19
2018-09-12T08:01:39.832Z,27.46
2018-09-12T08:02:39.849Z,27.29
2018-09-12T08:03:39.863Z,26.61
2018-09-12T08:04:39.867Z,26.39
2018-09-12T08:05:39.877Z,26.28
2018-09-12T08:06:39.884Z,25.93
2018-09-12T08:07:39.894Z,25.68
2018-09-12T08:08:39.899Z,26.37
2018-09-12T08:09:39.917Z,26.79
2018-09-12T08:10:39.921Z,26.50
2018-09-12T08:11:39.938Z,26.24
2018-09-12T08:12:39.952Z,26.22
2018-09-12T08:13:39.961Z,26.28
2018-09-12T08:14:39.972Z,26.64
2018-09-12T08:15:39.984Z,26.76
2018-09-12T08:16:39.995Z,26.86
2018-09-12T08:17:40.006Z,27.38
2018-09-12T08:18:40.016Z,27.85
2018-09-12T08:19:40.028Z,27.38
2018-09-12T08:20:40.055Z,27.05
2018-09-12T08:21:40.047Z,27.82
2018-09-12T08:22:40.063Z,28.59
2018-09-12T08:23:40.070Z,28.88
2018-09-12T08:24:40.083Z,28.63
2018-09-12T08:25:40.096Z,28.54
2018-09-12T08:26:40.161Z,28.87
2018-09-12T08:27:40.114Z,28.68
2018-09-12T08:28:40.130Z,29.08
2018-09-12T08:29:40.145Z,29.49
2018-09-12T08:30:40.158Z,29.38
2018-09-12T08:31:40.164Z,30.26
2018-09-12T08:32:40.177Z,30.31
2018-09-12T08:33:40.217Z,30.37
2018-09-12T08:34:40.201Z,30.27
2018-09-12T08:35:40.208Z,30.50
2018-09-12T08:36:40.216Z,29.82
2018-09-12T08:37:40.251Z,30.31
2018-09-12T08:38:40.247Z,30.72
2018-09-12T08:39:40.260Z,31.18
2018-09-12T08:40:40.269Z,30.81
2018-09-12T08:41:40.280Z,30.98
2018-09-12T08:42:40.358Z,31.35
2018-09-12T08:43:40.348Z,31.72
2018-09-12T08:44:40.315Z,32.25
2018-09-12T08:45:40.334Z,32.81
2018-09-12T08:46:40.346Z,32.55
2018-09-12T08:47:40.363Z,32.76
2018-09-12T08:48:40.378Z,32.71
2018-09-12T08:49:40.405Z,32.58
2018-09-12T08:50:40.398Z,31.49
2018-09-12T08:51:40.408Z,31.68
2018-09-12T08:52:40.421Z,32.29
2018-09-12T08:53:40.457Z,32.52
2018-09-12T08:54:40.462Z,33.15
2018-09-12T08:55:40.464Z,33.53
2018-09-12T08:56:40.492Z,32.55
2018-09-12T08:57:40.492Z,32.89
2018-09-12T08:58:40.509Z,32.51
2018-09-12T08:59:40.523Z,32.99
2018-09-12T09:00:40.531Z,32.03
2018-09-12T09:01:40.579Z,31.82
2018-09-12T09:02:40.559Z,31.48
2018-09-12T09:03:40.582Z,31.20
2018-09-12T09:04:40.589Z,31.64
2018-09-12T09:05:40.601Z,32.25
2018-09-12T09:06:40.614Z,33.03
2018-09-12T09:07:40.627Z,33.26
2018-09-12T09:08:40.642Z,33.82
2018-09-12T09:09:40.659Z,33.55
2018-09-12T09:10:40.745Z,33.19
2018-09-12T09:11:40.688Z,32.49
2018-09-12T09:12:40.699Z,32.42
2018-09-12T09:13:40.712Z,32.96
2018-09-12T09:14:40.726Z,32.32
2018-09-12T09:15:40.742Z,31.48
2018-09-12T09:16:40.753Z,31.95
2018-09-12T09:17:40.770Z,31.93
2018-09-12T09:18:40.786Z,31.76
2018-09-12T09:19:40.800Z,31.50
2018-09-12T09:20:40.810Z,31.76
2018-09-12T09:21:40.824Z,30.83
2018-09-12T09:22:40.839Z,30.64
2018-09-12T09:23:40.914Z,30.98
2018-09-12T09:24:40.885Z,30.93
2018-09-12T09:25:40.898Z,31.50
2018-09-12T09:26:40.901Z,32.14
2018-09-12T09:27:40.912Z,31.43
2018-09-12T09:28:40.927Z,31.98
2018-09-12T09:29:40.964Z,31.65
2018-09-12T09:30:40.954Z,31.53
2018-09-12T09:31:40.977Z,31.77
2018-09-12T09:32:41.017Z,31.02
2018-09-12T09:33:40.985Z,31.05
2018-09-12T09:34:41.047Z,31.04
2018-09-12T09:35:41.122Z,30.54
2018-09-12T09:36:41.034Z,30.37
2018-09-12T09:37:41.040Z,31.42
2018-09-12T09:38:41.089Z,32.05
2018-09-12T09:39:41.095Z,32.39
2018-09-12T09:40:41.090Z,32.40
2018-09-12T09:41:41.118Z,32.55
2018-09-12T09:42:41.166Z,33.13
2018-09-12T09:43:41.139Z,33.45
2018-09-12T09:44:41.173Z,33.11
2018-09-12T09:45:41.157Z,32.88
2018-09-12T09:46:41.177Z,32.73
2018-09-12T09:47:41.188Z,33.04
2018-09-12T09:48:41.199Z,33.08
2018-09-12T09:49:41.242Z,32.88
2018-09-12T09:50:41.228Z,32.51
2018-09-12T09:51:41.240Z,32.80
2018-09-12T09:52:41.257Z,32.91
2018-09-12T09:53:41.273Z,33.46
2018-09-12T09:54:41.341Z,33.86
2018-09-12T09:55:41.298Z,33.43
2018-09-12T09:56:41.329Z,33.27
2018-09-12T09:57:41.340Z,32.55
2018-09-12T09:58:41.347Z,32.58
2018-09-12T09:59:41.360Z,32.21
2018-09-12T10:00:41.373Z,31.60
2018-09-12T10:01:41.388Z,32.17
2018-09-12T10:02:41.400Z,32.88
2018-09-12T10:03:41.411Z,33.23
2018-09-12T10:04:41.432Z,33.68
2018-09-12T10:05:41.446Z,32.91
2018-09-12T10:06:41.460Z,32.73
2018-09-12T10:07:41.475Z,32.42
2018-09-12T10:08:41.488Z,32.44
2018-09-12T10:09:41.506Z,33.14
2018-09-12T10:10:41.519Z,33.63
2018-09-12T10:11:41.564Z,33.37
2018-09-12T10:12:41.548Z,33.86
2018-09-12T10:13:41.573Z,34.38
2018-09-12T10:14:41.578Z,34.95
2018-09-12T10:15:41.593Z,35.30
2018-09-12T10:16:41.606Z,34.86
2018-09-12T10:17:41.628Z,34.83
2018-09-12T10:18:41.635Z,34.54
2018-09-12T10:19:41.649Z,34.22
2018-09-12T10:20:41.664Z,33.92
2018-09-12T10:21:41.683Z,34.20
2018-09-12T10:22:41.698Z,33.37
2018-09-12T10:23:41.712Z,33.20
2018-09-12T10:24:41.724Z,33.49
2018-09-12T10:25:41.737Z,33.33
2018-09-12T10:26:41.753Z,33.33
2018-09-12T10:27:41.766Z,34.22
2018-09-12T10:28:41.783Z,34.00
2018-09-12T10:29:41.801Z,33.49
2018-09-12T10:30:41.812Z,33.83
2018-09-12T10:31:41.833Z,33.98
2018-09-12T10:32:41.842Z,34.13
2018-09-12T10:33:41.862Z,34.77
2018-09-12T10:34:41.872Z,34.95
2018-09-12T10:35:41.886Z,35.23
2018-09-12T10:36:41.900Z,34.56
2018-09-12T10:37:41.919Z,34.38
2018-09-12T10:38:41.931Z,34.69
2018-09-12T10:39:41.970Z,34.92
2018-09-12T10:40:41.964Z,35.26
2018-09-12T10:41:41.980Z,34.60
2018-09-12T10:42:41.996Z,34.04
2018-09-12T10:43:42.010Z,33.61
2018-09-12T10:44:42.023Z,33.73
2018-09-12T10:45:42.046Z,33.79
2018-09-12T10:46:42.054Z,33.87
2018-09-12T10:47:42.071Z,33.48
2018-09-12T10:48:42.097Z,33.46
2018-09-12T10:49:42.098Z,34.19
2018-09-12T10:50:42.114Z,34.88
2018-09-12T10:51:42.131Z,35.44
2018-09-12T10:52:42.147Z,35.63
2018-09-12T10:53:42.162Z,35.67
2018-09-12T10:54:42.179Z,35.97
2018-09-12T10:55:42.191Z,36.24
2018-09-12T10:56:42.206Z,36.31
2018-09-12T10:57:42.225Z,36.56
2018-09-12T10:58:42.235Z,36.06
2018-09-12T10:59:42.257Z,35.55
2018-09-12T11:00:42.268Z,35.52
2018-09-12T11:01:42.281Z,34.92
2018-09-12T11:02:42.302Z,35.21
2018-09-12T11:03:42.358Z,35.15
2018-09-12T11:04:42.331Z,35.03
2018-09-12T11:05:42.346Z,34.57
2018-09-12T11:06:42.360Z,34.36
2018-09-12T11:07:42.374Z,34.58
2018-09-12T11:08:42.389Z,34.16
2018-09-12T11:09:42.443Z,34.48
2018-09-12T11:10:42.422Z,34.74
2018-09-12T11:11:42.439Z,35.01
2018-09-12T11:12:42.455Z,34.84
2018-09-12T11:13:42.490Z,35.51
2018-09-12T11:14:42.483Z,35.14
2018-09-12T11:15:42.499Z,35.74
2018-09-12T11:16:42.513Z,35.74
2018-09-12T11:17:42.534Z,35.40
2018-09-12T11:18:42.549Z,35.37
2018-09-12T11:19:42.559Z,35.40
2018-09-12T11:20:42.575Z,35.70
2018-09-12T11:21:42.584Z,36.17
2018-09-12T11:22:42.609Z,35.79
2018-09-12T11:23:42.627Z,35.50
2018-09-12T11:24:42.640Z,35.74
2018-09-12T11:25:42.656Z,36.23
2018-09-12T11:26:42.671Z,36.31
2018-09-12T11:27:42.683Z,35.99
2018-09-12T11:28:42.706Z,36.30
2018-09-12T11:29:42.717Z,36.51
2018-09-12T11:30:42.732Z,36.49
2018-09-12T11:31:42.755Z,36.42
2018-09-12T11:32:42.757Z,36.48
2018-09-12T11:33:42.779Z,36.85
2018-09-12T11:34:42.797Z,37.04
2018-09-12T11:35:42.812Z,37.48
2018-09-12T11:36:42.829Z,37.71
2018-09-12T11:37:42.844Z,37.80
2018-09-12T11:38:42.861Z,36.99
2018-09-12T11:39:42.874Z,36.11
2018-09-12T11:40:42.888Z,35.70
2018-09-12T11:41:42.914Z,36.24
2018-09-12T11:42:42.926Z,36.41
2018-09-12T11:43:42.939Z,36.63
2018-09-12T11:44:42.957Z,37.02
2018-09-12T11:45:42.981Z,37.19
2018-09-12T11:46:42.979Z,37.07
2018-09-12T11:47:43.003Z,37.55
2018-09-12T11:48:43.021Z,37.68
2018-09-12T11:49:43.034Z,37.51
2018-09-12T11:50:43.055Z,36.04
2018-09-12T11:51:43.069Z,36.14
2018-09-12T11:52:43.083Z,36.52
2018-09-12T11:53:43.102Z,36.60
2018-09-12T11:54:43.110Z,35.72
2018-09-12T11:55:43.134Z,35.97
2018-09-12T11:56:43.146Z,36.26
2018-09-12T11:57:43.164Z,36.61
2018-09-12T11:58:43.181Z,36.31
2018-09-12T11:59:43.196Z,35.45
2018-09-12T12:00:43.211Z,34.73
2018-09-12T12:01:43.228Z,34.81
2018-09-12T12:02:43.241Z,33.98
2018-09-12T12:03:43.259Z,34.17
2018-09-12T12:04:43.273Z,33.41
2018-09-12T12:05:43.302Z,34.13
2018-09-12T12:06:43.306Z,33.87
2018-09-12T12:07:43.321Z,33.87
2018-09-12T12:08:43.334Z,33.76
2018-09-12T12:09:43.350Z,34.34
2018-09-12T12:10:43.369Z,34.70
2018-09-12T12:11:43.377Z,33.90
2018-09-12T12:12:43.395Z,33.36
2018-09-12T12:13:43.409Z,32.17
2018-09-12T12:14:43.422Z,31.58
2018-09-12T12:15:43.435Z,31.31
2018-09-12T12:16:43.499Z,30.98
2018-09-12T12:17:43.471Z,30.62
2018-09-12T12:18:43.477Z,30.38
2018-09-12T12:19:43.502Z,30.43
2018-09-12T12:20:43.504Z,30.46
2018-09-12T12:21:43.519Z,30.59
2018-09-12T12:22:43.534Z,30.59
2018-09-12T12:23:43.539Z,30.47
2018-09-12T12:24:43.551Z,30.37
2018-09-12T12:25:43.576Z,30.43
2018-09-12T12:26:43.570Z,30.38
2018-09-12T12:27:43.581Z,30.26
2018-09-12T12:28:43.591Z,30.00
2018-09-12T12:29:43.606Z,30.11
2018-09-12T12:30:43.603Z,30.03
2018-09-12T12:31:43.611Z,29.96
2018-09-12T12:32:43.622Z,30.02
2018-09-12T12:33:43.631Z,30.07
2018-09-12T12:34:43.636Z,30.15
2018-09-12T12:35:43.643Z,30.15
2018-09-12T12:36:43.648Z,29.97
2018-09-12T12:37:43.660Z,29.93
2018-09-12T12:38:43.667Z,30.00
2018-09-12T12:39:43.694Z,29.89
2018-09-12T12:40:43.676Z,29.96
2018-09-12T12:41:43.683Z,29.96
2018-09-12T12:42:43.688Z,29.93
2018-09-12T12:43:43.697Z,29.89
2018-09-12T12:44:43.702Z,29.77
2018-09-12T12:45:43.705Z,29.60
2018-09-12T12:46:43.714Z,29.56
2018-09-12T12:47:43.732Z,29.50
2018-09-12T12:48:43.724Z,29.57
2018-09-12T12:49:43.732Z,29.65
2018-09-12T12:50:43.736Z,29.44
2018-09-12T12:51:43.735Z,29.43
2018-09-12T12:52:43.745Z,29.28
2018-09-12T12:53:43.742Z,29.19
2018-09-12T12:54:43.756Z,29.11
2018-09-12T12:55:43.760Z,28.90
2018-09-12T12:56:43.763Z,28.66
2018-09-12T12:57:43.769Z,28.66
2018-09-12T12:58:43.771Z,28.56
2018-09-12T12:59:43.775Z,28.68
2018-09-12T13:00:43.782Z,28.82
2018-09-12T13:01:43.788Z,28.73
2018-09-12T13:02:43.793Z,28.84
2018-09-12T13:03:43.795Z,28.75
2018-09-12T13:04:43.804Z,28.88
2018-09-12T13:05:43.923Z,28.81
2018-09-12T13:06:43.808Z,29.03
2018-09-12T13:07:43.813Z,28.93
2018-09-12T13:08:43.818Z,28.85
2018-09-12T13:09:43.825Z,28.91
2018-09-12T13:10:43.828Z,29.07
2018-09-12T13:11:43.830Z,29.03
2018-09-12T13:12:43.835Z,29.10
2018-09-12T13:13:43.837Z,29.07
2018-09-12T13:14:44.026Z,28.93
2018-09-12T13:15:43.846Z,28.93
2018-09-12T13:16:43.850Z,29.03
2018-09-12T13:17:43.871Z,29.08
2018-09-12T13:18:43.858Z,29.01
2018-09-12T13:19:43.864Z,28.75
2018-09-12T13:20:43.865Z,28.82
2018-09-12T13:21:44.055Z,28.81
2018-09-12T13:22:43.874Z,28.96
2018-09-12T13:23:43.879Z,28.95
2018-09-12T13:24:43.898Z,29.00
2018-09-12T13:25:43.887Z,29.00
2018-09-12T13:26:43.893Z,29.03
2018-09-12T13:27:43.930Z,29.01
2018-09-12T13:28:43.897Z,28.96
2018-09-12T13:29:43.903Z,28.88
2018-09-12T13:30:43.904Z,28.88
2018-09-12T13:31:43.910Z,28.97
2018-09-12T13:32:43.916Z,28.95
2018-09-12T13:33:43.920Z,28.93
2018-09-12T13:34:43.923Z,28.87
2018-09-12T13:35:43.926Z,28.73
2018-09-12T13:36:43.931Z,28.65
2018-09-12T13:37:43.934Z,28.65
2018-09-12T13:38:43.939Z,28.63
2018-09-12T13:39:43.949Z,28.84
2018-09-12T13:40:43.943Z,28.78
2018-09-12T13:41:43.950Z,28.93
2018-09-12T13:42:43.952Z,28.77
2018-09-12T13:43:43.958Z,28.81
2018-09-12T13:44:43.957Z,28.65
2018-09-12T13:45:43.965Z,28.69
2018-09-12T13:46:43.957Z,28.62
2018-09-12T13:47:43.966Z,28.70
2018-09-12T13:48:43.976Z,28.68
2018-09-12T13:49:43.978Z,28.66
2018-09-12T13:50:43.981Z,28.56
2018-09-12T13:51:43.985Z,28.36
2018-09-12T13:52:43.988Z,28.46
2018-09-12T13:53:43.996Z,28.25
2018-09-12T13:54:43.994Z,28.35
2018-09-12T13:55:43.999Z,28.43
2018-09-12T13:56:44.105Z,28.36
2018-09-12T13:57:44.007Z,28.44
2018-09-12T13:58:44.011Z,28.56
2018-09-12T13:59:44.021Z,28.47
2018-09-12T14:00:44.016Z,28.51
2018-09-12T14:01:44.020Z,28.54
2018-09-12T14:02:44.025Z,28.65
2018-09-12T14:03:44.032Z,28.69
2018-09-12T14:04:44.034Z,28.73
2018-09-12T14:05:44.035Z,28.70
2018-09-12T14:06:44.043Z,28.72
2018-09-12T14:07:44.042Z,28.73
2018-09-12T14:08:44.053Z,28.68
2018-09-12T14:09:44.046Z,28.69
2018-09-12T14:10:44.050Z,28.82
2018-09-12T14:11:44.062Z,28.88
2018-09-12T14:12:44.061Z,28.95
2018-09-12T14:13:44.068Z,28.96
2018-09-12T14:14:44.069Z,28.97
2018-09-12T14:15:44.070Z,28.81
2018-09-12T14:16:44.075Z,28.66
2018-09-12T14:17:44.083Z,28.66
2018-09-12T14:18:44.088Z,28.70
2018-09-12T14:19:44.084Z,28.81
2018-09-12T14:20:44.090Z,28.85
2018-09-12T14:21:44.093Z,28.85
2018-09-12T14:22:44.155Z,28.91
2018-09-12T14:23:44.101Z,28.80
2018-09-12T14:24:44.102Z,28.81
2018-09-12T14:25:44.105Z,28.73
2018-09-12T14:26:44.110Z,28.66
2018-09-12T14:27:44.115Z,28.66
2018-09-12T14:28:44.131Z,28.54
2018-09-12T14:29:44.119Z,28.59
2018-09-12T14:30:44.125Z,28.59
2018-09-12T14:31:44.128Z,28.69
2018-09-12T14:32:44.136Z,28.66
2018-09-12T14:33:44.138Z,28.69
2018-09-12T14:34:44.141Z,28.56
2018-09-12T14:35:44.142Z,28.63
2018-09-12T14:36:44.141Z,28.60
2018-09-12T14:37:44.148Z,28.65
2018-09-12T14:38:44.199Z,28.68
2018-09-12T14:39:44.161Z,28.75
2018-09-12T14:40:44.158Z,28.68
2018-09-12T14:41:44.161Z,28.65
2018-09-12T14:42:44.170Z,28.70
2018-09-12T14:43:44.174Z,28.62
2018-09-12T14:44:44.189Z,28.53
2018-09-12T14:45:44.175Z,28.47
2018-09-12T14:46:44.182Z,28.47
2018-09-12T14:47:44.188Z,28.47
2018-09-12T14:48:44.196Z,28.48
2018-09-12T14:49:44.192Z,28.48
2018-09-12T14:50:44.260Z,28.53
2018-09-12T14:51:44.200Z,28.53
2018-09-12T14:52:44.200Z,28.56
2018-09-12T14:53:44.195Z,28.58
2018-09-12T14:54:44.201Z,28.56
2018-09-12T14:55:44.209Z,28.46
2018-09-12T14:56:44.215Z,28.44
2018-09-12T14:57:44.235Z,28.43
2018-09-12T14:58:44.225Z,28.36
2018-09-12T14:59:44.225Z,28.32
2018-09-12T15:00:44.226Z,28.26
2018-09-12T15:01:44.231Z,28.25
2018-09-12T15:02:44.232Z,28.32
2018-09-12T15:03:44.229Z,28.28
2018-09-12T15:04:44.259Z,28.04
2018-09-12T15:05:44.243Z,28.04
2018-09-12T15:06:44.249Z,27.85
2018-09-12T15:07:44.254Z,27.85
2018-09-12T15:08:44.258Z,27.88
2018-09-12T15:09:44.257Z,27.96
2018-09-12T15:10:44.259Z,28.21
2018-09-12T15:11:44.262Z,28.19
2018-09-12T15:12:44.276Z,28.23
2018-09-12T15:13:44.267Z,28.33
2018-09-12T15:14:44.275Z,28.25
2018-09-12T15:15:44.280Z,28.32
2018-09-12T15:16:44.277Z,28.38
2018-09-12T15:17:44.284Z,28.21
2018-09-12T15:18:44.284Z,28.16
2018-09-12T15:19:44.288Z,28.11
2018-09-12T15:20:44.293Z,28.21
2018-09-12T15:21:44.296Z,28.19
2018-09-12T15:22:44.298Z,28.11
2018-09-12T15:23:44.301Z,28.09
2018-09-12T15:24:44.296Z,28.04
2018-09-12T15:25:44.299Z,28.01
2018-09-12T15:26:44.307Z,27.98
2018-09-12T15:27:44.325Z,27.95
2018-09-12T15:28:44.315Z,28.06
2018-09-12T15:29:44.315Z,27.99
2018-09-12T15:30:44.321Z,27.99
2018-09-12T15:31:44.325Z,27.99
2018-09-12T15:32:44.327Z,27.89
2018-09-12T15:33:44.342Z,27.86
2018-09-12T15:34:44.336Z,27.89
2018-09-12T15:35:44.359Z,27.89
2018-09-12T15:36:44.344Z,27.95
2018-09-12T15:37:44.341Z,27.88
2018-09-12T15:38:44.346Z,27.84
2018-09-12T15:39:44.351Z,27.88
2018-09-12T15:40:44.350Z,27.84
2018-09-12T15:41:44.348Z,27.94
2018-09-12T15:42:44.358Z,27.85
2018-09-12T15:43:44.360Z,27.88
2018-09-12T15:44:44.366Z,27.89
2018-09-12T15:45:44.367Z,27.89
2018-09-12T15:46:44.372Z,27.86
2018-09-12T15:47:44.374Z,27.89
2018-09-12T15:48:44.377Z,27.76
2018-09-12T15:49:44.384Z,27.76
2018-09-12T15:50:44.386Z,27.76
2018-09-12T15:51:44.380Z,27.71
2018-09-12T15:52:44.405Z,27.71
2018-09-12T15:53:44.390Z,27.76
2018-09-12T15:54:44.397Z,27.69
2018-09-12T15:55:44.396Z,27.70
2018-09-12T15:56:44.400Z,27.76
2018-09-12T15:57:44.414Z,27.71
2018-09-12T15:58:44.403Z,27.73
2018-09-12T15:59:44.406Z,27.58
2018-09-12T16:00:44.408Z,27.69
2018-09-12T16:01:44.413Z,27.54
2018-09-12T16:02:44.457Z,27.59
2018-09-12T16:03:44.419Z,27.51
2018-09-12T16:04:44.425Z,27.47